Time;durP1;ratioP1;P1;durP2;ratioP2;P2;SDS_P1;SDS_P2;PMS_P1;PMS_P2;Temp;Humidity;BMP_temperature;BMP_pressure;BME280_temperature;BME280_humidity;BME280_pressure;Samples;Min_cycle;Max_cycle;Signal;HPM_P1;HPM_P2
2023/02/25 00:01:22;;;;;;;35.40;18.60;;;;;;;4.71;92.21;98416.14;104511;1273;100805;-79
2023/02/25 00:04:07;;;;;;;33.40;17.50;;;;;;;4.72;92.24;98410.23;104231;1275;98040;-78
2023/02/25 00:06:52;;;;;;;37.00;19.90;;;;;;;4.73;92.19;98405.24;104386;1273;98497;-77
2023/02/25 00:09:37;;;;;;;33.00;17.80;;;;;;;4.74;92.01;98399.41;104533;1273;98423;-80
2023/02/25 00:12:22;;;;;;;35.70;18.50;;;;;;;4.74;91.98;98397.02;104485;1273;103108;-78
2023/02/25 00:15:08;;;;;;;35.20;18.90;;;;;;;4.73;92.01;98393.83;104505;1276;100415;-78
2023/02/25 00:17:53;;;;;;;28.10;15.20;;;;;;;4.69;91.48;98388.77;104475;1273;98029;-77
2023/02/25 00:20:41;;;;;;;23.70;13.40;;;;;;;4.62;91.40;98388.14;104416;1275;98575;-78
2023/02/25 00:23:26;;;;;;;27.80;15.00;;;;;;;4.55;91.36;98385.73;104374;1273;98656;-77
2023/02/25 00:26:11;;;;;;;31.10;14.50;;;;;;;4.52;91.45;98385.52;104475;1275;102697;-78
2023/02/25 00:28:56;;;;;;;31.40;15.20;;;;;;;4.51;91.50;98385.51;104448;1274;99197;-79
2023/02/25 00:31:41;;;;;;;27.80;14.50;;;;;;;4.52;91.68;98382.87;104347;1274;99187;-78
2023/02/25 00:34:27;;;;;;;25.60;14.80;;;;;;;4.53;91.73;98379.13;104421;1277;98014;-77
2023/02/25 00:37:14;;;;;;;25.20;13.70;;;;;;;4.53;91.77;98376.55;104397;1274;98506;-78
2023/02/25 01:23:46;;;;;;;26.30;14.20;;;;;;;4.48;93.71;98325.20;104439;1274;102585;-78
2023/02/25 01:26:35;;;;;;;27.50;14.70;;;;;;;4.47;93.94;98316.68;104418;1273;99078;-80
2023/02/25 01:29:25;;;;;;;31.80;16.00;;;;;;;4.48;94.01;98308.57;104694;1278;98806;-81
2023/02/25 01:32:12;;;;;;;25.50;14.00;;;;;;;4.47;94.01;98306.16;104555;1279;98074;-80
2023/02/25 01:34:58;;;;;;;28.20;14.90;;;;;;;4.48;94.11;98302.73;104692;1273;98555;-80
2023/02/25 01:37:45;;;;;;;31.60;16.40;;;;;;;4.45;94.01;98299.02;104543;1273;101347;-80
2023/02/25 01:40:30;;;;;;;29.30;16.10;;;;;;;4.44;94.31;98295.27;104978;1273;99236;-79
2023/02/25 01:43:15;;;;;;;30.10;14.80;;;;;;;4.44;94.49;98291.18;104498;1273;99118;-78
2023/02/25 01:46:00;;;;;;;29.50;15.20;;;;;;;4.45;94.66;98288.48;104422;1280;98010;-78
2023/02/25 01:48:45;;;;;;;29.10;14.70;;;;;;;4.45;94.64;98289.88;104508;1273;97901;-79
2023/02/25 01:51:32;;;;;;;29.90;15.40;;;;;;;4.44;94.79;98283.77;104484;1273;102077;-77
2023/02/25 01:54:44;;;;;;;27.40;14.80;;;;;;;4.43;94.84;98274.55;104493;1276;99103;-78
2023/02/25 01:57:28;;;;;;;30.40;15.40;;;;;;;4.41;94.93;98269.90;104526;1275;98433;-79
2023/02/25 02:00:15;;;;;;;33.60;16.90;;;;;;;4.39;95.06;98265.17;104452;1280;98038;-79
2023/02/25 02:03:00;;;;;;;27.80;15.90;;;;;;;4.39;95.16;98266.55;104617;1277;98420;-78
2023/02/25 02:06:12;;;;;;;28.30;15.90;;;;;;;4.40;95.26;98260.84;104528;1277;102123;-76
2023/02/25 02:08:58;;;;;;;32.50;20.00;;;;;;;4.38;95.30;98252.77;104896;1276;99806;-79
2023/02/25 02:11:43;;;;;;;31.20;18.20;;;;;;;4.37;95.20;98251.43;104490;1278;98728;-78
2023/02/25 02:14:33;;;;;;;33.30;17.80;;;;;;;4.35;95.06;98254.64;104541;1273;97933;-78
2023/02/25 02:17:46;;;;;;;26.40;15.60;;;;;;;4.34;95.15;98253.92;104423;1280;98439;-78
2023/02/25 02:21:12;;;;;;;25.50;15.50;;;;;;;4.33;95.34;98248.05;104609;1273;101334;-78
2023/02/25 02:24:20;;;;;;;30.90;15.50;;;;;;;4.29;95.22;98249.44;104247;1274;99324;-79
2023/02/25 02:27:30;;;;;;;22.70;13.30;;;;;;;4.24;95.29;98248.66;104451;1276;97996;-78
2023/02/25 02:30:39;;;;;;;20.30;11.80;;;;;;;4.14;94.99;98240.66;104530;1273;97995;-78
2023/02/25 02:33:47;;;;;;;20.70;12.30;;;;;;;4.05;95.19;98235.04;104566;1280;98756;-79
2023/02/25 02:36:50;;;;;;;16.80;11.40;;;;;;;3.98;95.06;98232.54;104608;1273;101412;-77
2023/02/25 02:40:19;;;;;;;17.40;9.70;;;;;;;3.93;95.20;98227.48;104524;1274;100381;-78
2023/02/25 02:43:16;;;;;;;15.20;10.30;;;;;;;3.89;95.52;98218.43;104282;1277;98093;-78
2023/02/25 02:46:19;;;;;;;16.70;10.70;;;;;;;3.88;95.75;98214.45;104466;1274;98066;-77
2023/02/25 02:49:10;;;;;;;19.70;11.40;;;;;;;3.90;95.81;98211.34;104360;1276;98472;-78
2023/02/25 02:52:00;;;;;;;;;;;;;;;3.91;95.94;98215.09;104511;1273;101321;-78
2023/02/25 02:54:53;;;;;;;19.90;11.40;;;;;;;3.87;95.93;98214.73;104349;1273;99628;-79
2023/02/25 02:57:40;;;;;;;22.80;12.00;;;;;;;3.83;95.92;98215.45;104366;1276;98752;-77
2023/02/25 03:00:32;;;;;;;21.80;14.00;;;;;;;3.81;96.33;98208.23;105200;1274;97953;-78
2023/02/25 03:03:34;;;;;;;20.30;11.50;;;;;;;3.80;96.35;98207.14;104443;1277;97998;-78
2023/02/25 03:06:24;;;;;;;21.20;11.90;;;;;;;3.79;96.39;98206.73;104425;1280;101442;-78
2023/02/25 03:09:17;;;;;;;18.60;12.90;;;;;;;3.79;96.49;98201.39;105154;1274;99229;-78
2023/02/25 03:12:03;;;;;;;18.60;10.90;;;;;;;3.77;96.49;98197.35;103999;1277;98457;-78
2023/02/25 03:14:50;;;;;;;23.00;14.10;;;;;;;3.72;96.45;98194.34;104379;1274;98036;-80
2023/02/25 03:17:43;;;;;;;21.60;13.70;;;;;;;3.71;96.55;98197.67;104661;1273;98570;-78
2023/02/25 03:20:35;;;;;;;23.70;12.70;;;;;;;3.71;96.83;98198.54;104688;1280;102689;-80
2023/02/25 03:23:24;;;;;;;25.30;14.40;;;;;;;3.72;96.97;98195.32;104747;1279;100307;-79
2023/02/25 03:26:25;;;;;;;19.80;12.70;;;;;;;3.70;96.94;98195.67;104518;1277;98027;-78
2023/02/25 03:29:19;;;;;;;23.50;14.20;;;;;;;3.68;97.08;98191.64;104675;1280;98038;-79
2023/02/25 03:32:12;;;;;;;25.60;16.10;;;;;;;3.66;97.13;98197.86;104276;1273;98526;-79
2023/02/25 03:35:00;;;;;;;23.90;15.20;;;;;;;3.66;97.22;98197.34;104425;1273;102415;-79
2023/02/25 03:37:50;;;;;;;22.50;15.50;;;;;;;3.64;97.34;98195.91;104496;1275;99441;-78
2023/02/25 03:40:39;;;;;;;22.00;14.00;;;;;;;3.65;97.43;98198.20;104311;1277;98939;-78
2023/02/25 03:43:30;;;;;;;24.00;15.30;;;;;;;3.63;97.49;98200.31;104654;1277;98517;-78
2023/02/25 03:46:19;;;;;;;19.40;13.40;;;;;;;3.65;97.47;98197.83;104380;1277;98511;-79
2023/02/25 03:49:06;;;;;;;19.30;12.50;;;;;;;3.62;97.46;98196.19;104447;1277;103543;-79
2023/02/25 03:51:56;;;;;;;19.00;12.00;;;;;;;3.59;97.72;98195.66;104434;1274;100224;-78
2023/02/25 03:54:40;;;;;;;20.70;12.80;;;;;;;3.56;97.62;98197.45;104414;1275;97906;-77
2023/02/25 03:57:34;;;;;;;21.20;12.30;;;;;;;3.53;97.52;98194.84;104407;1277;98089;-78
2023/02/25 04:00:29;;;;;;;19.00;11.80;;;;;;;3.50;97.66;98196.48;104553;1274;98545;-79
2023/02/25 04:03:14;;;;;;;18.80;12.70;;;;;;;3.49;97.83;98197.83;104510;1274;101338;-78
2023/02/25 04:05:59;;;;;;;16.60;11.40;;;;;;;3.49;97.89;98201.91;104582;1277;100536;-77
2023/02/25 04:08:45;;;;;;;17.30;12.20;;;;;;;3.46;97.90;98204.42;104553;1274;99297;-78
2023/02/25 04:11:30;;;;;;;18.80;11.90;;;;;;;3.43;97.87;98207.23;104565;1277;98858;-78
2023/02/25 04:14:17;;;;;;;18.10;11.80;;;;;;;3.36;97.83;98209.82;104524;1275;98515;-79
2023/02/25 04:17:04;;;;;;;18.50;12.20;;;;;;;3.33;97.94;98208.58;104588;1274;101472;-78
2023/02/25 04:19:48;;;;;;;17.40;13.20;;;;;;;3.33;98.17;98206.13;104617;1276;99272;-78
2023/02/25 04:22:33;;;;;;;17.80;12.40;;;;;;;3.30;98.29;98211.61;104454;1279;98285;-79
2023/02/25 04:25:18;;;;;;;17.00;12.40;;;;;;;3.31;98.61;98212.80;104560;1277;97908;-79
2023/02/25 04:28:04;;;;;;;17.00;12.10;;;;;;;3.30;98.63;98214.77;104601;1274;97815;-79
2023/02/25 04:30:48;;;;;;;16.40;12.30;;;;;;;3.29;98.76;98216.63;104551;1277;102200;-79
2023/02/25 04:33:33;;;;;;;16.60;11.80;;;;;;;3.28;98.74;98216.14;104609;1274;99177;-77
2023/02/25 04:36:25;;;;;;;17.80;11.60;;;;;;;3.26;98.63;98218.08;104505;1274;99345;-78
2023/02/25 04:39:12;;;;;;;18.90;13.30;;;;;;;3.26;98.67;98218.03;104591;1274;97999;-79
2023/02/25 04:41:57;;;;;;;17.70;12.60;;;;;;;3.24;98.75;98219.82;104605;1277;98456;-79
2023/02/25 04:44:42;;;;;;;17.40;12.10;;;;;;;3.26;98.91;98221.50;104783;1273;101285;-78
2023/02/25 04:47:27;;;;;;;17.10;12.80;;;;;;;3.28;98.93;98224.43;104585;1275;99197;-79
2023/02/25 04:50:12;;;;;;;18.70;13.90;;;;;;;3.28;98.98;98219.46;104602;1274;99552;-77
2023/02/25 04:52:59;;;;;;;17.20;12.90;;;;;;;3.29;99.03;98218.13;104462;1277;97991;-79
2023/02/25 04:55:43;;;;;;;18.30;12.80;;;;;;;3.29;98.94;98216.83;104503;1274;98457;-78
2023/02/25 04:58:29;;;;;;;21.80;14.90;;;;;;;3.29;98.99;98213.20;104471;1274;103678;-78
2023/02/25 05:01:14;;;;;;;22.60;15.80;;;;;;;3.29;99.15;98209.50;104630;1276;99951;-79
2023/02/25 05:03:59;;;;;;;18.90;14.00;;;;;;;3.29;99.21;98203.11;104636;1279;98014;-78
2023/02/25 05:06:44;;;;;;;17.10;13.30;;;;;;;3.27;99.08;98201.61;104635;1273;97905;-85
2023/02/25 05:09:30;;;;;;;18.50;14.10;;;;;;;3.25;99.18;98198.66;105187;1275;97956;-86
2023/02/25 05:12:15;;;;;;;19.00;13.70;;;;;;;3.23;99.20;98194.86;104971;1274;101369;-86
2023/02/25 05:15:27;;;;;;;20.50;13.90;;;;;;;3.22;99.29;98189.90;104968;1280;99624;-83
2023/02/25 05:18:12;;;;;;;21.40;13.90;;;;;;;3.22;99.33;98186.08;104792;1273;98974;-84
2023/02/25 05:21:00;;;;;;;21.10;14.60;;;;;;;3.20;99.29;98187.34;104989;1280;97981;-84
2023/02/25 05:23:51;;;;;;;23.50;15.80;;;;;;;3.21;99.44;98190.23;104731;1276;98576;-83
2023/02/25 05:26:37;;;;;;;21.40;14.60;;;;;;;3.24;99.70;98188.03;104958;1272;102487;-84
2023/02/25 05:29:22;;;;;;;20.80;14.20;;;;;;;3.25;99.64;98189.42;104978;1279;100747;-85
2023/02/25 05:32:08;;;;;;;27.00;15.40;;;;;;;3.25;99.76;98188.11;105106;1274;100321;-84
2023/02/25 05:34:53;;;;;;;22.00;15.20;;;;;;;3.26;99.62;98182.54;104961;1274;99164;-83
2023/02/25 05:37:43;;;;;;;35.60;17.50;;;;;;;3.26;99.66;98191.16;104985;1274;98699;-84
2023/02/25 05:40:29;;;;;;;28.90;17.10;;;;;;;3.27;99.75;98187.20;104866;1280;102435;-82
2023/02/25 05:43:14;;;;;;;35.60;18.70;;;;;;;3.26;99.73;98190.84;105046;1274;101330;-82
2023/02/25 05:46:02;;;;;;;30.90;18.70;;;;;;;3.27;99.82;98191.78;105332;1277;98943;-85
2023/02/25 05:48:48;;;;;;;25.00;16.50;;;;;;;3.25;99.79;98190.96;104556;1278;98155;-76
2023/02/25 05:51:33;;;;;;;25.20;15.60;;;;;;;3.25;99.88;98190.48;103999;1277;98600;-76
2023/02/25 05:54:18;;;;;;;24.10;15.50;;;;;;;3.25;99.86;98191.83;104025;1274;101307;-81
2023/02/25 05:57:04;;;;;;;25.60;15.80;;;;;;;3.25;99.98;98195.61;105026;1280;100620;-74
2023/02/25 05:59:49;;;;;;;24.10;16.20;;;;;;;3.24;99.98;98198.12;104080;1274;97904;-74
2023/02/25 06:02:35;;;;;;;23.30;16.00;;;;;;;3.24;100.00;98197.46;104109;1274;98430;-74
2023/02/25 06:05:20;;;;;;;23.50;15.40;;;;;;;3.25;100.00;98198.74;104240;1287;98408;-76
2023/02/25 06:08:05;;;;;;;26.90;16.10;;;;;;;3.25;100.00;98199.92;104339;1274;102700;-74
2023/02/25 06:10:51;;;;;;;25.60;17.10;;;;;;;3.27;100.00;98198.31;104027;1277;99551;-74
2023/02/25 06:13:36;;;;;;;29.70;18.20;;;;;;;3.29;100.00;98194.11;104177;1275;99132;-78
2023/02/25 06:16:24;;;;;;;28.30;18.40;;;;;;;3.30;100.00;98192.94;104475;1274;97989;-75
2023/02/25 06:19:11;;;;;;;30.90;17.50;;;;;;;3.32;100.00;98195.87;105214;1275;96112;-82
2023/02/25 06:21:55;;;;;;;28.30;18.90;;;;;;;3.32;100.00;98192.58;104773;1280;101378;-73
2023/02/25 06:24:40;;;;;;;31.40;18.80;;;;;;;3.33;100.00;98193.06;104094;1277;99240;-74
2023/02/25 06:27:25;;;;;;;25.60;16.00;;;;;;;3.34;100.00;98191.13;104070;1279;98033;-75
2023/02/25 06:30:11;;;;;;;32.10;19.20;;;;;;;3.33;100.00;98193.73;104108;1274;97994;-74
2023/02/25 06:32:57;;;;;;;29.50;18.00;;;;;;;3.31;100.00;98189.65;104130;1277;99296;-84
2023/02/25 06:35:42;;;;;;;32.40;21.10;;;;;;;3.31;100.00;98190.14;104502;1274;102848;-74
2023/02/25 06:38:27;;;;;;;30.90;19.40;;;;;;;3.32;100.00;98188.75;104070;1281;99088;-77
2023/02/25 06:41:16;;;;;;;33.20;19.40;;;;;;;3.35;100.00;98189.30;104166;1277;98450;-76
2023/02/25 06:44:01;;;;;;;31.90;18.70;;;;;;;3.38;100.00;98187.51;104046;1276;97969;-75
2023/02/25 06:46:50;;;;;;;30.30;18.40;;;;;;;3.40;100.00;98186.82;104061;1275;98529;-75
2023/02/25 06:49:35;;;;;;;27.20;17.70;;;;;;;3.42;100.00;98187.98;104101;1280;101367;-74
2023/02/25 06:52:20;;;;;;;28.50;18.00;;;;;;;3.42;100.00;98186.01;104035;1277;99817;-75
2023/02/25 06:55:05;;;;;;;30.10;18.90;;;;;;;3.44;100.00;98184.84;104037;1277;98934;-76
2023/02/25 06:57:50;;;;;;;27.10;17.80;;;;;;;3.48;100.00;98184.94;104130;1277;98417;-77
2023/02/25 07:00:36;;;;;;;29.10;18.50;;;;;;;3.50;100.00;98183.88;104156;1274;98526;-75
2023/02/25 07:03:21;;;;;;;31.30;19.80;;;;;;;3.50;100.00;98183.78;104069;1273;102821;-76
2023/02/25 07:06:07;;;;;;;30.90;17.40;;;;;;;3.49;100.00;98183.86;104073;1274;99136;-76
2023/02/25 07:08:52;;;;;;;26.40;17.30;;;;;;;3.49;100.00;98179.64;104053;1287;98108;-74
2023/02/25 07:11:37;;;;;;;28.90;18.20;;;;;;;3.51;100.00;98179.23;104002;1274;97973;-75
2023/02/25 07:14:22;;;;;;;27.70;18.10;;;;;;;3.52;100.00;98180.42;104537;1273;98494;-76
2023/02/25 07:17:07;;;;;;;27.70;18.20;;;;;;;3.53;100.00;98177.65;104185;1277;101956;-75
2023/02/25 07:19:51;;;;;;;26.60;18.00;;;;;;;3.55;100.00;98182.37;104079;1277;100573;-75
2023/02/25 07:22:37;;;;;;;26.80;17.20;;;;;;;3.56;100.00;98182.82;105083;1273;99947;-82
2023/02/25 07:25:23;;;;;;;29.10;19.60;;;;;;;3.58;100.00;98179.81;105048;1276;98087;-85
2023/02/25 07:28:08;;;;;;;30.20;18.30;;;;;;;3.63;100.00;98181.90;104991;1279;98112;-84
2023/02/25 07:30:54;;;;;;;26.90;17.40;;;;;;;3.66;100.00;98179.79;105177;1274;102624;-84
2023/02/25 07:33:40;;;;;;;24.10;16.00;;;;;;;3.69;100.00;98184.85;104914;1277;101521;-83
2023/02/25 07:36:26;;;;;;;26.80;18.70;;;;;;;3.69;100.00;98183.02;105229;1277;100084;-83
2023/02/25 07:39:13;;;;;;;25.30;17.30;;;;;;;3.68;100.00;98183.58;105318;1274;98096;-85
2023/02/25 07:41:58;;;;;;;28.10;18.00;;;;;;;3.67;100.00;98181.26;105094;1274;99679;-80
2023/02/25 07:44:46;;;;;;;26.50;17.30;;;;;;;3.68;100.00;98183.45;105207;1272;102364;-79
2023/02/25 07:47:31;;;;;;;26.00;17.80;;;;;;;3.71;100.00;98185.54;105342;1277;109359;-82
2023/02/25 07:50:16;;;;;;;25.20;17.10;;;;;;;3.74;100.00;98182.85;105296;1274;97958;-80
2023/02/25 07:53:01;;;;;;;22.50;15.40;;;;;;;3.76;100.00;98180.66;105520;1277;97895;-80
2023/02/25 07:55:47;;;;;;;27.60;16.50;;;;;;;3.75;100.00;98181.39;104749;1273;98813;-79
2023/02/25 07:58:33;;;;;;;25.70;16.90;;;;;;;3.74;100.00;98178.16;104614;1272;102839;-78
2023/02/25 08:01:24;;;;;;;22.80;16.20;;;;;;;3.73;100.00;98178.29;105757;1274;101227;-79
2023/02/25 08:04:09;;;;;;;24.60;17.00;;;;;;;3.74;100.00;98176.98;104946;1277;99034;-82
2023/02/25 08:06:54;;;;;;;28.20;17.40;;;;;;;3.75;100.00;98179.47;105208;1277;98740;-79
2023/02/25 08:09:40;;;;;;;22.90;16.70;;;;;;;3.75;100.00;98176.46;104841;1277;98414;-80
2023/02/25 08:12:25;;;;;;;22.70;15.30;;;;;;;3.77;100.00;98175.69;105526;1277;102750;-79
2023/02/25 08:15:10;;;;;;;25.10;15.80;;;;;;;3.80;100.00;98176.79;104972;1282;99075;-79
2023/02/25 08:17:55;;;;;;;23.50;16.10;;;;;;;3.82;100.00;98175.69;104994;1277;98023;-83
2023/02/25 08:20:46;;;;;;;22.60;16.10;;;;;;;3.83;100.00;98173.33;105254;1278;97931;-80
2023/02/25 08:23:31;;;;;;;;;;;;;;;3.84;100.00;98164.20;105318;1279;99274;-83
2023/02/25 08:26:17;;;;;;;22.70;15.10;;;;;;;3.84;100.00;98166.77;105248;1275;102640;-77
2023/02/25 08:29:02;;;;;;;19.90;14.20;;;;;;;3.87;100.00;98167.42;104355;1277;100428;-76
2023/02/25 08:31:50;;;;;;;23.40;16.10;;;;;;;3.92;100.00;98167.75;104626;1273;98021;-82
2023/02/25 08:34:35;;;;;;;35.80;23.30;;;;;;;3.94;100.00;98169.02;104917;1275;97980;-77
2023/02/25 08:37:21;;;;;;;53.80;34.60;;;;;;;3.96;100.00;98168.27;104134;1277;97973;-75
2023/02/25 08:40:08;;;;;;;48.00;31.80;;;;;;;3.97;100.00;98172.53;104031;1274;101970;-76
2023/02/25 08:42:54;;;;;;;27.40;19.60;;;;;;;3.97;100.00;98174.36;104120;1277;100348;-75
2023/02/25 08:45:40;;;;;;;31.20;25.10;;;;;;;3.94;100.00;98173.30;104239;1274;97991;-75
2023/02/25 08:48:26;;;;;;;27.60;20.80;;;;;;;3.95;100.00;98176.02;104087;1273;99135;-76
2023/02/25 08:51:11;;;;;;;29.50;20.60;;;;;;;3.95;100.00;98173.02;104211;1277;97994;-76
2023/02/25 08:53:56;;;;;;;31.20;22.00;;;;;;;3.94;100.00;98170.27;104055;1275;101434;-76
2023/02/25 08:56:43;;;;;;;32.90;23.90;;;;;;;3.96;100.00;98173.57;104124;1277;99227;-76
2023/02/25 08:59:34;;;;;;;28.70;21.40;;;;;;;3.99;100.00;98173.70;104247;1285;97988;-76
2023/02/25 09:02:19;;;;;;;27.70;19.40;;;;;;;4.03;100.00;98172.42;104286;1287;97979;-76
2023/02/25 09:05:04;;;;;;;23.60;16.80;;;;;;;4.08;100.00;98171.09;104039;1282;98426;-75
2023/02/25 09:07:51;;;;;;;23.10;15.60;;;;;;;4.14;100.00;98170.56;103956;1277;101399;-75
2023/02/25 09:10:36;;;;;;;25.10;15.30;;;;;;;4.25;100.00;98168.19;103974;1279;99150;-74
2023/02/25 09:13:21;;;;;;;25.10;15.00;;;;;;;4.36;100.00;98166.14;104076;1276;99298;-76
2023/02/25 09:16:06;;;;;;;21.30;14.60;;;;;;;4.45;100.00;98168.27;104061;1277;97911;-76
2023/02/25 09:18:51;;;;;;;27.00;17.60;;;;;;;4.53;100.00;98162.96;104162;1279;98423;-77
2023/02/25 09:21:36;;;;;;;26.30;18.40;;;;;;;4.63;100.00;98158.36;104167;1273;101453;-76
2023/02/25 09:24:21;;;;;;;20.20;14.40;;;;;;;4.78;100.00;98156.37;104070;1277;99732;-77
2023/02/25 09:27:06;;;;;;;17.20;13.10;;;;;;;4.90;100.00;98155.27;104164;1273;98503;-75
2023/02/25 09:29:51;;;;;;;15.60;11.20;;;;;;;4.97;100.00;98155.07;104779;1273;97880;-76
2023/02/25 09:32:36;;;;;;;15.60;11.00;;;;;;;5.05;100.00;98151.65;104112;1273;97776;-75
2023/02/25 09:35:21;;;;;;;14.90;11.40;;;;;;;5.12;100.00;98147.82;104301;1277;101453;-76
2023/02/25 09:38:06;;;;;;;15.90;10.90;;;;;;;5.14;100.00;98152.17;104238;1278;100364;-75
2023/02/25 09:40:51;;;;;;;13.80;9.80;;;;;;;5.12;100.00;98166.07;104007;1280;98085;-77
2023/02/25 09:43:41;;;;;;;16.50;11.40;;;;;;;4.93;98.94;98178.27;103979;1283;98049;-76
2023/02/25 09:46:29;;;;;;;9.70;6.90;;;;;;;4.65;97.49;98171.98;104772;1277;99712;-76
2023/02/25 09:49:47;;;;;;;7.00;5.90;;;;;;;4.42;97.14;98172.27;104078;1277;102695;-76
2023/02/25 09:52:45;;;;;;;7.30;5.70;;;;;;;4.21;97.42;98168.76;104134;1279;99184;-75
2023/02/25 09:55:35;;;;;;;8.30;6.20;;;;;;;4.08;97.78;98167.02;104084;1278;98253;-77
2023/02/25 09:58:45;;;;;;;6.80;5.60;;;;;;;4.01;98.20;98169.54;104024;1288;98101;-76
2023/02/25 10:01:41;;;;;;;8.20;6.10;;;;;;;3.97;98.85;98168.16;104121;1277;97990;-76
2023/02/25 10:04:38;;;;;;;9.50;5.70;;;;;;;3.94;99.30;98171.63;104071;1277;101458;-77
2023/02/25 10:07:32;;;;;;;9.60;6.80;;;;;;;3.94;99.73;98171.70;104126;1277;99135;-75
2023/02/25 10:10:24;;;;;;;10.00;5.80;;;;;;;4.00;100.00;98169.14;104385;1283;99025;-77
2023/02/25 10:13:18;;;;;;;8.30;6.30;;;;;;;4.04;100.00;98169.87;104066;1277;98023;-74
2023/02/25 10:16:34;;;;;;;8.10;5.80;;;;;;;4.07;100.00;98170.64;104220;1274;98993;-76
2023/02/25 10:19:35;;;;;;;8.40;6.30;;;;;;;4.12;100.00;98168.44;104120;1277;102687;-76
2023/02/25 10:22:42;;;;;;;10.50;7.00;;;;;;;4.15;100.00;98166.20;104104;1277;99125;-76
2023/02/25 10:25:33;;;;;;;11.40;7.90;;;;;;;4.22;100.00;98163.86;104045;1277;97995;-77
2023/02/25 10:28:20;;;;;;;14.20;8.60;;;;;;;4.30;100.00;98162.72;104685;1279;98025;-77
2023/02/25 10:31:14;;;;;;;11.10;8.60;;;;;;;4.38;100.00;98163.48;104059;1273;98430;-77
2023/02/25 10:34:24;;;;;;;13.00;9.90;;;;;;;4.41;100.00;98164.45;104246;1277;102452;-76
2023/02/25 10:37:32;;;;;;;13.10;8.50;;;;;;;4.44;100.00;98159.88;103919;1282;99246;-76
2023/02/25 10:40:21;;;;;;;12.60;9.80;;;;;;;4.48;100.00;98161.30;104204;1278;98007;-76
2023/02/25 10:43:20;;;;;;;19.60;14.60;;;;;;;4.52;100.00;98159.41;103969;1277;98014;-75
2023/02/25 10:46:21;;;;;;;16.90;12.20;;;;;;;4.58;100.00;98160.18;104238;1273;98508;-76
2023/02/25 10:49:19;;;;;;;15.80;11.60;;;;;;;4.65;100.00;98159.30;104648;1277;102321;-76
2023/02/25 10:52:16;;;;;;;16.20;12.10;;;;;;;4.69;100.00;98156.64;104013;1277;99073;-76
2023/02/25 10:55:01;;;;;;;20.00;15.20;;;;;;;4.73;100.00;98154.55;107085;1279;99256;-77
2023/02/25 10:57:46;;;;;;;17.30;12.20;;;;;;;4.74;100.00;98156.87;104730;1274;97936;-76
2023/02/25 11:00:35;;;;;;;21.90;15.70;;;;;;;4.73;100.00;98160.74;104056;1287;98198;-77
2023/02/25 11:03:23;;;;;;;22.60;14.60;;;;;;;4.75;100.00;98160.42;104109;1279;102262;-76
2023/02/25 11:06:22;;;;;;;14.80;10.30;;;;;;;4.77;100.00;98159.88;103998;1279;99798;-76
2023/02/25 11:09:19;;;;;;;11.90;9.00;;;;;;;4.78;100.00;98160.45;104122;1276;98417;-76
2023/02/25 11:12:16;;;;;;;18.70;12.20;;;;;;;4.79;100.00;98164.94;104142;1279;97860;-77
2023/02/25 11:15:37;;;;;;;14.20;8.70;;;;;;;4.78;99.96;98162.48;104074;1273;98417;-76
2023/02/25 11:18:27;;;;;;;12.60;9.30;;;;;;;4.78;99.86;98162.52;104024;1273;102758;-77
2023/02/25 11:21:14;;;;;;;7.80;6.80;;;;;;;4.79;99.94;98162.35;104545;1277;100565;-76
2023/02/25 11:24:05;;;;;;;21.30;11.60;;;;;;;4.79;99.75;98159.27;104080;1276;98440;-76
2023/02/25 11:26:51;;;;;;;15.70;10.90;;;;;;;4.76;99.38;98158.41;106790;1273;97953;-76
2023/02/25 11:29:41;;;;;;;16.30;11.10;;;;;;;4.79;99.64;98155.17;104124;1288;99704;-77
2023/02/25 11:32:25;;;;;;;10.30;8.70;;;;;;;4.83;99.82;98154.81;104097;1273;102056;-77
2023/02/25 11:35:19;;;;;;;22.70;15.00;;;;;;;4.83;99.53;98158.44;104031;1274;100935;-76
2023/02/25 11:38:24;;;;;;;11.40;8.80;;;;;;;4.80;99.22;98161.66;104905;1276;97993;-75
2023/02/25 11:41:20;;;;;;;23.80;14.80;;;;;;;4.65;97.87;98162.48;104013;1273;97914;-75
2023/02/25 11:44:19;;;;;;;15.70;11.30;;;;;;;4.57;97.86;98161.29;104054;1274;97923;-76
2023/02/25 11:47:28;;;;;;;13.30;9.10;;;;;;;4.58;98.34;98157.40;104023;1273;101472;-76
2023/02/25 11:50:28;;;;;;;10.90;7.90;;;;;;;4.62;98.86;98164.70;104116;1277;99988;-76
2023/02/25 11:53:30;;;;;;;19.30;12.10;;;;;;;4.64;99.31;98170.20;103932;1274;99282;-76
2023/02/25 11:56:27;;;;;;;9.80;7.20;;;;;;;4.64;99.43;98165.80;107045;1273;96233;-76
2023/02/25 11:59:41;;;;;;;12.20;8.10;;;;;;;4.65;99.60;98173.71;105003;1273;97880;-76
2023/02/25 12:02:46;;;;;;;5.30;3.80;;;;;;;4.69;99.54;98175.24;103913;1273;101492;-76
2023/02/25 12:05:55;;;;;;;4.60;3.40;;;;;;;4.74;99.83;98176.21;104120;1277;99192;-77
2023/02/25 12:09:05;;;;;;;5.20;3.20;;;;;;;4.82;100.00;98174.67;104094;1273;98006;-75
2023/02/25 12:11:50;;;;;;;2.60;2.40;;;;;;;4.83;99.48;98176.02;104101;1274;98580;-76
2023/02/25 12:14:53;;;;;;;3.20;2.20;;;;;;;4.81;99.41;98181.98;104028;1273;98090;-76
2023/02/25 12:18:00;;;;;;;3.10;2.30;;;;;;;4.79;99.39;98191.41;104192;1276;101457;-76
2023/02/25 12:21:08;;;;;;;4.10;3.00;;;;;;;4.63;98.16;98194.55;104018;1281;99306;-76
2023/02/25 12:24:17;;;;;;;7.50;3.00;;;;;;;4.50;98.07;98192.13;104048;1273;98889;-77
2023/02/25 12:27:20;;;;;;;10.20;5.40;;;;;;;4.44;98.51;98190.27;104078;1277;98111;-76
2023/02/25 12:30:23;;;;;;;6.00;5.00;;;;;;;4.50;99.37;98187.06;104002;1276;98673;-76
2023/02/25 12:33:30;;;;;;;13.10;8.70;;;;;;;4.56;99.57;98188.11;104007;1276;101476;-75
2023/02/25 12:36:37;;;;;;;9.20;6.80;;;;;;;4.72;100.00;98186.66;103996;1274;100232;-77
2023/02/25 12:39:46;;;;;;;10.30;6.20;;;;;;;4.86;100.00;98187.10;104076;1277;99090;-78
2023/02/25 12:42:43;;;;;;;11.50;6.10;;;;;;;4.87;99.99;98194.14;104189;1276;97880;-75
2023/02/25 12:45:56;;;;;;;4.10;3.70;;;;;;;4.81;99.56;98202.46;104027;1276;99604;-75
2023/02/25 12:49:17;;;;;;;3.60;3.00;;;;;;;4.64;98.27;98204.95;104121;1276;102723;-76
2023/02/25 12:52:34;;;;;;;4.30;3.30;;;;;;;4.47;98.24;98209.45;103762;1277;100818;-77
2023/02/25 12:55:41;;;;;;;3.10;2.10;;;;;;;4.44;99.03;98211.55;104060;1276;99141;-76
2023/02/25 12:58:41;;;;;;;2.30;1.80;;;;;;;4.44;99.26;98212.71;104018;1274;98106;-76
2023/02/25 13:02:04;;;;;;;2.10;1.50;;;;;;;4.44;99.30;98211.17;104098;1274;99273;-75
2023/02/25 13:05:18;;;;;;;3.60;1.80;;;;;;;4.40;99.06;98215.17;103991;1275;101433;-74
2023/02/25 13:08:28;;;;;;;2.30;2.10;;;;;;;4.40;99.37;98218.27;104110;1277;99119;-76
2023/02/25 13:11:34;;;;;;;3.60;2.40;;;;;;;4.38;99.43;98222.56;103902;1273;98818;-76
2023/02/25 13:14:30;;;;;;;3.00;2.40;;;;;;;4.39;99.55;98224.27;104026;1274;98557;-76
2023/02/25 13:17:55;;;;;;;4.30;3.00;;;;;;;4.42;99.80;98227.41;104089;1273;98545;-77
2023/02/25 13:20:46;;;;;;;3.60;2.70;;;;;;;4.44;99.72;98231.20;103992;1277;101528;-77
2023/02/25 13:23:39;;;;;;;3.70;3.00;;;;;;;4.45;99.77;98235.48;104538;1276;99923;-75
2023/02/25 13:26:48;;;;;;;3.90;2.80;;;;;;;4.48;99.82;98240.13;104033;1277;98000;-76
2023/02/25 13:29:45;;;;;;;3.60;3.10;;;;;;;4.50;99.64;98244.77;104122;1277;98008;-76
2023/02/25 13:32:49;;;;;;;4.00;2.90;;;;;;;4.54;99.94;98244.33;104146;1274;98519;-76
2023/02/25 13:35:55;;;;;;;4.80;3.30;;;;;;;4.56;99.94;98245.55;104031;1276;101430;-75
2023/02/25 13:39:06;;;;;;;5.00;3.10;;;;;;;4.57;99.69;98245.83;104130;1274;99113;-77
2023/02/25 13:42:26;;;;;;;4.70;3.40;;;;;;;4.55;99.49;98249.75;104066;1277;98854;-77
2023/02/25 13:46:02;;;;;;;5.20;3.70;;;;;;;4.53;99.35;98255.54;103994;1273;99350;-76
2023/02/25 13:48:56;;;;;;;6.50;4.00;;;;;;;4.52;99.31;98258.67;103850;1273;98632;-75
2023/02/25 13:52:09;;;;;;;4.80;4.00;;;;;;;4.50;99.17;98262.64;104230;1273;102326;-76
2023/02/25 13:55:06;;;;;;;4.90;4.00;;;;;;;4.44;98.95;98266.64;104041;1273;99226;-76